createdAt,value
2018-09-27T00:00:53.698Z,79.0
2018-09-27T00:01:55.067Z,79.0
2018-09-27T00:02:56.416Z,79.1
2018-09-27T00:03:57.771Z,79.1
2018-09-27T00:04:59.137Z,79.1
2018-09-27T00:06:00.498Z,79.0
2018-09-27T00:07:01.849Z,78.6
2018-09-27T00:08:03.212Z,78.6
2018-09-27T00:09:04.556Z,79.3
2018-09-27T00:10:05.907Z,79.1
2018-09-27T00:11:07.256Z,79.0
2018-09-27T00:12:08.611Z,78.7
2018-09-27T00:13:09.963Z,79.0
2018-09-27T00:14:11.337Z,78.2
2018-09-27T00:15:12.700Z,79.1
2018-09-27T00:16:14.046Z,78.7
2018-09-27T00:17:15.387Z,79.3
2018-09-27T00:18:16.751Z,79.2
2018-09-27T00:19:18.117Z,79.6
2018-09-27T00:20:19.456Z,79.3
2018-09-27T00:21:20.816Z,79.4
2018-09-27T00:22:22.175Z,79.6
2018-09-27T00:23:23.526Z,79.4
2018-09-27T00:24:24.881Z,79.4
2018-09-27T00:25:26.236Z,79.3
2018-09-27T00:26:27.596Z,80.1
2018-09-27T00:27:28.938Z,79.3
2018-09-27T00:28:30.300Z,79.9
2018-09-27T00:29:31.675Z,80.0
2018-09-27T00:30:33.030Z,80.1
2018-09-27T00:31:34.373Z,80.1
2018-09-27T00:32:35.726Z,79.8
2018-09-27T00:33:37.071Z,80.1
2018-09-27T00:34:38.427Z,80.2
2018-09-27T00:35:39.771Z,80.2
2018-09-27T00:36:41.138Z,80.3
2018-09-27T00:37:42.482Z,80.4
2018-09-27T00:38:43.827Z,80.3
2018-09-27T00:39:45.183Z,80.2
2018-09-27T00:40:46.553Z,80.3
2018-09-27T00:41:47.911Z,80.3
2018-09-27T00:42:49.262Z,80.5
2018-09-27T00:43:50.605Z,80.5
2018-09-27T00:44:51.970Z,80.4
2018-09-27T00:45:53.330Z,80.3
2018-09-27T00:46:54.685Z,81.3
2018-09-27T00:47:56.048Z,80.9
2018-09-27T00:48:57.414Z,80.9
2018-09-27T00:49:58.768Z,80.9
2018-09-27T00:51:00.116Z,80.9
2018-09-27T00:52:01.463Z,81.1
2018-09-27T00:53:02.816Z,81.1
2018-09-27T00:54:04.181Z,80.9
2018-09-27T00:55:05.549Z,81.0
2018-09-27T00:56:06.890Z,81.0
2018-09-27T00:57:08.238Z,80.8
2018-09-27T00:58:09.601Z,80.8
2018-09-27T00:59:10.950Z,81.2
2018-09-27T01:00:12.298Z,80.8
2018-09-27T01:01:13.660Z,80.9
2018-09-27T01:02:15.013Z,81.0
2018-09-27T01:03:16.365Z,81.5
2018-09-27T01:04:17.716Z,81.3
2018-09-27T01:05:19.072Z,81.4
2018-09-27T01:06:20.417Z,81.3
2018-09-27T01:07:21.777Z,81.3
2018-09-27T01:08:23.127Z,81.3
2018-09-27T01:09:24.486Z,81.3
2018-09-27T01:10:25.837Z,80.9
2018-09-27T01:11:27.177Z,81.7
2018-09-27T01:12:28.528Z,81.4
2018-09-27T01:13:29.892Z,81.6
2018-09-27T01:14:31.245Z,81.3
2018-09-27T01:15:32.592Z,81.3
2018-09-27T01:16:33.940Z,81.3
2018-09-27T01:17:35.340Z,81.7
2018-09-27T01:18:36.640Z,81.9
2018-09-27T01:19:37.985Z,81.7
2018-09-27T01:20:39.330Z,81.8
2018-09-27T01:21:40.686Z,81.7
2018-09-27T01:22:42.041Z,82.6
2018-09-27T01:23:43.387Z,82.2
2018-09-27T01:24:44.758Z,82.1
2018-09-27T01:25:46.103Z,82.0
2018-09-27T01:26:47.460Z,81.9
2018-09-27T01:27:48.817Z,82.1
2018-09-27T01:28:50.172Z,82.1
2018-09-27T01:29:51.525Z,82.4
2018-09-27T01:30:52.870Z,82.1
2018-09-27T01:31:54.215Z,82.0
2018-09-27T01:32:55.562Z,82.1
2018-09-27T01:33:56.926Z,82.2
2018-09-27T01:34:58.280Z,82.2
2018-09-27T01:35:59.635Z,82.2
2018-09-27T01:37:00.987Z,82.2
2018-09-27T01:38:02.356Z,82.2
2018-09-27T01:39:03.715Z,82.3
2018-09-27T01:40:05.052Z,82.1
2018-09-27T01:41:06.413Z,82.7
2018-09-27T01:42:07.766Z,82.1
2018-09-27T01:43:09.121Z,82.4
2018-09-27T01:44:10.472Z,82.2
2018-09-27T01:45:11.826Z,82.3
2018-09-27T01:46:13.165Z,82.7
2018-09-27T01:47:14.608Z,83.0
2018-09-27T01:48:15.826Z,82.7
2018-09-27T01:49:17.187Z,82.8
2018-09-27T01:50:18.538Z,82.8
2018-09-27T01:51:19.888Z,82.8
2018-09-27T01:52:21.240Z,83.1
2018-09-27T01:53:22.585Z,82.6
2018-09-27T01:54:23.952Z,82.7
2018-09-27T01:55:25.290Z,82.6
2018-09-27T01:56:26.652Z,83.1
2018-09-27T01:57:28.007Z,83.0
2018-09-27T01:58:29.363Z,83.0
2018-09-27T01:59:30.717Z,83.0
2018-09-27T02:00:32.067Z,82.8
2018-09-27T02:01:33.421Z,83.2
2018-09-27T02:02:34.772Z,83.2
2018-09-27T02:03:36.121Z,83.7
2018-09-27T02:04:37.496Z,83.5
2018-09-27T02:05:38.841Z,83.0
2018-09-27T02:06:40.197Z,83.2
2018-09-27T02:07:41.576Z,83.2
2018-09-27T02:08:42.928Z,83.0
2018-09-27T02:09:44.279Z,83.3
2018-09-27T02:10:45.628Z,83.7
2018-09-27T02:11:46.982Z,83.5
2018-09-27T02:12:48.336Z,83.3
2018-09-27T02:13:49.685Z,83.6
2018-09-27T02:14:51.058Z,84.3
2018-09-27T02:15:52.417Z,83.5
2018-09-27T02:16:53.761Z,83.9
2018-09-27T02:17:55.122Z,84.1
2018-09-27T02:18:56.468Z,83.6
2018-09-27T02:19:57.823Z,84.4
2018-09-27T02:20:59.176Z,83.8
2018-09-27T02:22:00.526Z,83.7
2018-09-27T02:23:01.887Z,83.9
2018-09-27T02:24:03.233Z,84.2
2018-09-27T02:25:04.608Z,84.3
2018-09-27T02:26:05.943Z,84.9
2018-09-27T02:27:07.303Z,85.0
2018-09-27T02:28:08.653Z,84.3
2018-09-27T02:29:10.000Z,84.2
2018-09-27T02:30:11.362Z,84.7
2018-09-27T02:31:12.713Z,84.2
2018-09-27T02:32:14.063Z,84.5
2018-09-27T02:33:15.424Z,84.5
2018-09-27T02:34:16.783Z,84.4
2018-09-27T02:35:18.133Z,84.2
2018-09-27T02:36:19.477Z,84.3
2018-09-27T02:37:20.847Z,85.0
2018-09-27T02:38:22.192Z,85.0
2018-09-27T02:39:23.548Z,84.9
2018-09-27T02:40:24.896Z,85.0
2018-09-27T02:41:26.252Z,85.2
2018-09-27T02:42:27.606Z,84.8
2018-09-27T02:43:28.952Z,84.9
2018-09-27T02:44:30.308Z,84.8
2018-09-27T02:45:31.663Z,84.9
2018-09-27T02:46:33.018Z,85.0
2018-09-27T02:47:34.377Z,85.1
2018-09-27T02:48:35.720Z,85.0
2018-09-27T02:49:37.080Z,84.9
2018-09-27T02:50:38.427Z,84.7
2018-09-27T02:51:39.776Z,85.0
2018-09-27T02:53:20.631Z,84.9
2018-09-27T02:54:21.976Z,85.5
2018-09-27T02:55:23.331Z,85.3
2018-09-27T02:56:24.692Z,85.3
2018-09-27T02:57:26.035Z,85.5
2018-09-27T02:58:27.380Z,85.5
2018-09-27T02:59:28.729Z,85.6
2018-09-27T03:00:30.088Z,85.6
2018-09-27T03:01:31.428Z,85.5
2018-09-27T03:02:32.787Z,85.3
2018-09-27T03:03:34.136Z,85.7
2018-09-27T03:04:35.485Z,85.5
2018-09-27T03:05:36.828Z,85.6
2018-09-27T03:06:38.182Z,85.7
2018-09-27T03:07:39.558Z,85.6
2018-09-27T03:08:40.903Z,85.5
2018-09-27T03:09:42.243Z,86.3
2018-09-27T03:10:43.603Z,85.5
2018-09-27T03:11:44.960Z,85.6
2018-09-27T03:12:46.304Z,85.6
2018-09-27T03:13:47.672Z,85.8
2018-09-27T03:14:48.965Z,85.8
2018-09-27T03:15:50.317Z,86.1
2018-09-27T03:16:51.672Z,86.1
2018-09-27T03:17:53.033Z,85.6
2018-09-27T03:18:54.374Z,85.9
2018-09-27T03:19:55.731Z,85.8
2018-09-27T03:20:57.118Z,86.0
2018-09-27T03:21:58.383Z,86.0
2018-09-27T03:22:59.734Z,85.6
2018-09-27T03:24:01.083Z,85.6
2018-09-27T03:25:02.444Z,86.0
2018-09-27T03:26:03.779Z,86.2
2018-09-27T03:27:05.122Z,85.8
2018-09-27T03:28:06.487Z,85.9
2018-09-27T03:29:07.832Z,85.9
2018-09-27T03:30:09.188Z,85.9
2018-09-27T03:31:10.540Z,86.2
2018-09-27T03:32:11.883Z,86.2
2018-09-27T03:33:13.237Z,86.3
2018-09-27T03:34:14.589Z,86.0
2018-09-27T03:35:15.988Z,86.2
2018-09-27T03:36:17.295Z,86.6
2018-09-27T03:37:19.497Z,86.4
2018-09-27T03:38:20.857Z,86.5
2018-09-27T03:39:22.217Z,86.3
2018-09-27T03:40:23.577Z,86.4
2018-09-27T03:41:24.899Z,86.7
2018-09-27T03:42:26.249Z,86.5
2018-09-27T03:43:27.604Z,86.6
2018-09-27T03:44:28.949Z,86.6
2018-09-27T03:45:30.319Z,86.7
2018-09-27T03:46:31.667Z,86.5
2018-09-27T03:47:33.023Z,86.5
2018-09-27T03:48:34.374Z,86.5
2018-09-27T03:49:35.724Z,86.4
2018-09-27T03:50:37.088Z,86.3
2018-09-27T03:51:38.449Z,86.2
2018-09-27T03:52:39.807Z,86.2
2018-09-27T03:53:41.144Z,86.2
2018-09-27T03:54:42.498Z,86.4
2018-09-27T03:55:43.854Z,86.2
2018-09-27T03:56:45.209Z,86.7
2018-09-27T03:57:46.589Z,86.5
2018-09-27T03:58:47.917Z,87.0
2018-09-27T03:59:49.388Z,86.8
2018-09-27T04:00:50.730Z,86.6
2018-09-27T04:01:52.108Z,86.2
2018-09-27T04:02:53.463Z,86.3
2018-09-27T04:03:54.804Z,86.9
2018-09-27T04:04:56.161Z,86.8
2018-09-27T04:05:57.497Z,87.0
2018-09-27T04:06:58.874Z,86.9
2018-09-27T04:08:00.254Z,86.5
2018-09-27T04:09:01.637Z,86.4
2018-09-27T04:10:02.979Z,86.7
2018-09-27T04:11:04.329Z,87.1
2018-09-27T04:12:05.687Z,87.1
2018-09-27T04:13:07.042Z,87.1
2018-09-27T04:14:08.410Z,86.8
2018-09-27T04:15:09.765Z,87.0
2018-09-27T04:16:11.147Z,87.1
2018-09-27T04:17:12.504Z,87.1
2018-09-27T04:18:13.917Z,87.0
2018-09-27T04:19:15.287Z,87.6
2018-09-27T04:20:16.630Z,87.2
2018-09-27T04:21:17.987Z,87.2
2018-09-27T04:22:19.378Z,87.3
2018-09-27T04:23:20.734Z,87.2
2018-09-27T04:24:22.098Z,87.2
2018-09-27T04:25:23.455Z,87.3
2018-09-27T04:26:24.802Z,88.0
2018-09-27T04:27:26.156Z,88.0
2018-09-27T04:28:27.516Z,87.7
2018-09-27T04:29:28.860Z,87.9
2018-09-27T04:30:30.216Z,87.6
2018-09-27T04:31:31.580Z,87.6
2018-09-27T04:32:32.964Z,87.6
2018-09-27T04:33:34.298Z,87.3
2018-09-27T04:34:35.644Z,87.7
2018-09-27T04:35:37.014Z,87.8
2018-09-27T04:36:38.358Z,87.7
2018-09-27T04:37:39.737Z,87.3
2018-09-27T04:38:41.092Z,87.5
2018-09-27T04:39:42.483Z,87.6
2018-09-27T04:40:43.787Z,87.6
2018-09-27T04:41:45.147Z,87.7
2018-09-27T04:42:46.496Z,88.0
2018-09-27T04:43:47.846Z,88.2
2018-09-27T04:44:49.202Z,88.5
2018-09-27T04:45:50.601Z,88.0
2018-09-27T04:46:51.913Z,88.1
2018-09-27T04:47:53.301Z,88.4
2018-09-27T04:48:54.727Z,88.1
2018-09-27T04:49:56.077Z,87.9
2018-09-27T04:50:57.427Z,88.1
2018-09-27T04:51:58.788Z,88.5
2018-09-27T04:53:00.144Z,88.5
2018-09-27T04:54:01.481Z,88.3
2018-09-27T04:55:02.843Z,88.1
2018-09-27T04:56:04.209Z,88.1
2018-09-27T04:57:05.559Z,88.2
2018-09-27T04:58:06.897Z,88.9
2018-09-27T04:59:08.287Z,88.9
2018-09-27T05:00:09.735Z,88.9
2018-09-27T05:01:10.976Z,88.7
2018-09-27T05:02:12.333Z,88.9
2018-09-27T05:03:13.678Z,88.8
2018-09-27T05:04:15.038Z,88.9
2018-09-27T05:05:16.384Z,88.8
2018-09-27T05:06:17.793Z,88.3
2018-09-27T05:07:19.105Z,88.3
2018-09-27T05:08:20.457Z,88.7
2018-09-27T05:09:21.805Z,88.9
2018-09-27T05:10:23.155Z,88.7
2018-09-27T05:11:24.507Z,88.8
2018-09-27T05:12:25.905Z,88.9
2018-09-27T05:13:27.267Z,88.7
2018-09-27T05:14:28.620Z,88.7
2018-09-27T05:15:30.018Z,88.8
2018-09-27T05:16:31.323Z,88.7
2018-09-27T05:17:32.673Z,88.7
2018-09-27T05:18:34.045Z,88.8
2018-09-27T05:19:35.393Z,88.4
2018-09-27T05:20:36.763Z,88.7
2018-09-27T05:21:38.165Z,88.8
2018-09-27T05:22:39.430Z,88.7
2018-09-27T05:23:40.784Z,88.8
2018-09-27T05:24:42.135Z,88.9
2018-09-27T05:25:43.488Z,88.8
2018-09-27T05:26:44.830Z,88.4
2018-09-27T05:27:46.266Z,88.8
2018-09-27T05:28:47.552Z,88.9
2018-09-27T05:29:49.050Z,88.7
2018-09-27T05:30:50.440Z,88.4
2018-09-27T05:31:51.785Z,88.5
2018-09-27T05:32:53.158Z,88.5
2018-09-27T05:33:54.521Z,88.5
2018-09-27T05:34:55.875Z,88.5
2018-09-27T05:35:57.233Z,88.5
2018-09-27T05:36:58.594Z,88.6
2018-09-27T05:37:59.959Z,88.6
2018-09-27T05:39:01.299Z,88.9
2018-09-27T05:40:02.656Z,88.8
2018-09-27T05:41:04.028Z,88.7
2018-09-27T05:42:05.385Z,88.9
2018-09-27T05:43:06.733Z,88.8
2018-09-27T05:44:08.099Z,88.7
2018-09-27T05:45:09.452Z,89.0
2018-09-27T05:46:10.801Z,88.9
2018-09-27T05:47:12.154Z,88.5
2018-09-27T05:48:13.511Z,88.6
2018-09-27T05:49:14.881Z,88.4
2018-09-27T05:50:16.233Z,88.1
2018-09-27T05:51:17.580Z,88.5
2018-09-27T05:52:18.940Z,88.5
2018-09-27T05:53:20.299Z,88.5
2018-09-27T05:54:21.740Z,88.4
2018-09-27T05:55:23.094Z,88.5
2018-09-27T05:56:24.449Z,88.0
2018-09-27T05:57:25.837Z,88.0
2018-09-27T05:58:27.167Z,88.4
2018-09-27T05:59:28.521Z,88.4
2018-09-27T06:00:29.864Z,88.1
2018-09-27T06:01:31.233Z,88.3
2018-09-27T06:02:32.586Z,88.2
2018-09-27T06:03:33.965Z,88.2
2018-09-27T06:04:35.306Z,88.4
2018-09-27T06:05:36.665Z,88.5
2018-09-27T06:06:38.036Z,88.1
2018-09-27T06:07:39.400Z,88.5
2018-09-27T06:08:40.751Z,88.3
2018-09-27T06:09:42.122Z,88.3
2018-09-27T06:10:43.431Z,88.9
2018-09-27T06:11:44.844Z,88.9
2018-09-27T06:12:46.224Z,89.0
2018-09-27T06:13:47.606Z,88.9
2018-09-27T06:14:48.968Z,88.6
2018-09-27T06:15:50.335Z,88.9
2018-09-27T06:16:51.688Z,88.7
2018-09-27T06:17:53.044Z,88.9
2018-09-27T06:18:54.413Z,88.8
2018-09-27T06:19:55.807Z,88.7
2018-09-27T06:20:57.125Z,88.8
2018-09-27T06:21:58.545Z,88.8
2018-09-27T06:22:59.913Z,88.8
2018-09-27T06:24:01.301Z,88.5
2018-09-27T06:25:02.649Z,88.6
2018-09-27T06:26:04.061Z,88.5
2018-09-27T06:27:05.380Z,88.6
2018-09-27T06:28:06.736Z,88.5
2018-09-27T06:29:08.103Z,88.4
2018-09-27T06:30:09.454Z,88.7
2018-09-27T06:31:10.812Z,88.8
2018-09-27T06:32:12.170Z,88.8
2018-09-27T06:33:13.523Z,88.9
2018-09-27T06:34:14.882Z,88.8
2018-09-27T06:35:16.234Z,88.6
2018-09-27T06:36:17.583Z,88.5
2018-09-27T06:37:18.955Z,88.6
2018-09-27T06:38:20.318Z,88.5
2018-09-27T06:39:21.681Z,88.3
2018-09-27T06:40:23.040Z,88.6
2018-09-27T06:41:24.426Z,88.6
2018-09-27T06:42:25.720Z,88.3
2018-09-27T06:43:27.095Z,89.0
2018-09-27T06:44:28.595Z,88.9
2018-09-27T06:45:29.904Z,88.4
2018-09-27T06:46:31.258Z,88.7
2018-09-27T06:47:32.630Z,88.6
2018-09-27T06:48:34.024Z,88.9
2018-09-27T06:49:35.339Z,88.9
2018-09-27T06:50:36.803Z,88.1
2018-09-27T06:51:38.069Z,88.3
2018-09-27T06:52:39.476Z,87.7
2018-09-27T06:53:40.835Z,87.4
2018-09-27T06:54:42.264Z,87.2
2018-09-27T06:55:43.660Z,87.2
2018-09-27T06:56:44.959Z,87.0
2018-09-27T06:57:46.250Z,86.5
2018-09-27T06:58:47.606Z,86.0
2018-09-27T06:59:49.376Z,85.7
2018-09-27T07:00:50.753Z,85.5
2018-09-27T07:01:52.103Z,85.3
2018-09-27T07:02:53.479Z,85.1
2018-09-27T07:03:54.839Z,84.4
2018-09-27T07:04:56.224Z,84.4
2018-09-27T07:05:57.566Z,83.5
2018-09-27T07:06:58.924Z,83.4
2018-09-27T07:08:00.294Z,82.9
2018-09-27T07:09:01.659Z,83.1
2018-09-27T07:10:03.021Z,82.9
2018-09-27T07:11:04.393Z,82.5
2018-09-27T07:12:05.774Z,81.9
2018-09-27T07:13:07.124Z,82.3
2018-09-27T07:14:08.485Z,81.3
2018-09-27T07:15:09.865Z,80.9
2018-09-27T07:16:11.255Z,80.4
2018-09-27T07:17:12.614Z,79.6
2018-09-27T07:18:13.974Z,79.3
2018-09-27T07:19:15.355Z,79.4
2018-09-27T07:20:16.757Z,79.3
2018-09-27T07:21:18.105Z,78.4
2018-09-27T07:22:19.483Z,78.0
2018-09-27T07:23:20.844Z,77.9
2018-09-27T07:24:22.221Z,76.6
2018-09-27T07:25:23.594Z,76.4
2018-09-27T07:26:25.024Z,76.0
2018-09-27T07:27:26.330Z,74.9
2018-09-27T07:28:28.392Z,74.8
2018-09-27T07:29:29.816Z,73.9
2018-09-27T07:30:31.181Z,74.0
2018-09-27T07:31:32.567Z,74.3
2018-09-27T07:32:34.007Z,73.8
2018-09-27T07:33:35.266Z,73.7
2018-09-27T07:34:36.635Z,73.7
2018-09-27T07:35:38.000Z,73.8
2018-09-27T07:36:39.379Z,73.1
2018-09-27T07:37:40.741Z,73.1
2018-09-27T07:38:42.288Z,72.9
2018-09-27T07:39:43.500Z,72.4
2018-09-27T07:40:44.859Z,72.6
2018-09-27T07:41:46.242Z,72.7
2018-09-27T07:42:47.654Z,72.5
2018-09-27T07:43:48.976Z,72.5
2018-09-27T07:44:50.352Z,72.2
2018-09-27T07:45:51.720Z,72.1
2018-09-27T07:46:53.087Z,71.3
2018-09-27T07:47:54.465Z,70.9
2018-09-27T07:48:55.842Z,70.6
2018-09-27T07:49:57.199Z,70.3
2018-09-27T07:50:58.580Z,70.1
2018-09-27T07:51:59.966Z,69.9
2018-09-27T07:53:01.370Z,69.5
2018-09-27T07:54:02.740Z,68.8
2018-09-27T07:55:04.120Z,68.7
2018-09-27T07:56:05.486Z,68.5
2018-09-27T07:57:06.860Z,68.1
2018-09-27T07:58:08.230Z,67.8
2018-09-27T07:59:09.605Z,68.1
2018-09-27T08:00:10.972Z,67.2
2018-09-27T08:01:12.366Z,66.8
2018-09-27T08:02:13.714Z,66.7
2018-09-27T08:03:15.102Z,66.0
2018-09-27T08:04:16.543Z,65.3
2018-09-27T08:05:17.811Z,65.8
2018-09-27T08:06:19.199Z,65.0
2018-09-27T08:07:20.573Z,65.3
2018-09-27T08:08:21.972Z,64.7
2018-09-27T08:09:23.316Z,64.5
2018-09-27T08:10:24.676Z,64.4
2018-09-27T08:11:26.136Z,63.7
2018-09-27T08:12:28.261Z,63.2
2018-09-27T08:13:28.755Z,63.5
2018-09-27T08:14:30.144Z,63.0
2018-09-27T08:15:31.516Z,63.0
2018-09-27T08:16:32.891Z,63.3
2018-09-27T08:17:34.267Z,63.0
2018-09-27T08:18:35.666Z,62.7
2018-09-27T08:19:37.036Z,63.2
2018-09-27T08:20:38.452Z,62.6
2018-09-27T08:21:39.790Z,62.9
2018-09-27T08:22:41.177Z,62.3
2018-09-27T08:23:42.556Z,62.2
2018-09-27T08:24:43.938Z,62.1
2018-09-27T08:25:45.309Z,62.3
2018-09-27T08:26:46.695Z,61.7
2018-09-27T08:27:48.072Z,61.7
2018-09-27T08:28:49.447Z,61.3
2018-09-27T08:29:50.817Z,60.4
2018-09-27T08:30:52.212Z,60.0
2018-09-27T08:31:53.565Z,60.4
2018-09-27T08:32:54.941Z,59.8
2018-09-27T08:33:56.311Z,59.9
2018-09-27T08:34:57.695Z,60.0
2018-09-27T08:35:59.080Z,60.0
2018-09-27T08:37:00.451Z,59.8
2018-09-27T08:38:01.822Z,60.1
2018-09-27T08:39:03.203Z,59.7
2018-09-27T08:40:04.582Z,60.0
2018-09-27T08:41:05.953Z,60.2
2018-09-27T08:42:07.323Z,60.4
2018-09-27T08:43:08.701Z,60.2
2018-09-27T08:44:10.082Z,59.1
2018-09-27T08:45:11.655Z,59.4
2018-09-27T08:46:12.800Z,59.2
2018-09-27T08:47:14.181Z,58.9
2018-09-27T08:48:15.562Z,58.1
2018-09-27T08:49:16.940Z,57.8
2018-09-27T08:50:18.311Z,57.4
2018-09-27T08:51:19.698Z,56.8
2018-09-27T08:53:00.586Z,56.0
2018-09-27T08:54:01.991Z,56.2
2018-09-27T08:55:03.387Z,56.4
2018-09-27T08:56:04.867Z,56.6
2018-09-27T08:57:06.156Z,56.9
2018-09-27T08:58:07.540Z,57.0
2018-09-27T08:59:08.933Z,56.8
2018-09-27T09:00:10.337Z,57.0
2018-09-27T09:01:11.725Z,57.2
2018-09-27T09:02:13.095Z,56.8
2018-09-27T09:03:14.485Z,56.4
2018-09-27T09:04:15.864Z,55.5
2018-09-27T09:05:17.237Z,55.9
2018-09-27T09:06:18.623Z,55.7
2018-09-27T09:07:20.002Z,55.7
2018-09-27T09:08:22.037Z,55.3
2018-09-27T09:09:23.486Z,54.8
2018-09-27T09:10:24.887Z,55.1
2018-09-27T09:11:26.270Z,53.9
2018-09-27T09:12:27.707Z,53.9
2018-09-27T09:13:29.168Z,54.2
2018-09-27T09:14:30.529Z,54.0
2018-09-27T09:15:31.963Z,54.7
2018-09-27T09:16:33.331Z,54.4
2018-09-27T09:17:34.715Z,54.5
2018-09-27T09:18:36.110Z,54.5
2018-09-27T09:19:37.521Z,54.1
2018-09-27T09:20:38.926Z,53.9
2018-09-27T09:21:40.320Z,53.6
2018-09-27T09:22:41.732Z,53.8
2018-09-27T09:23:43.184Z,53.7
2018-09-27T09:24:44.620Z,53.8
2018-09-27T09:25:46.003Z,53.9
2018-09-27T09:26:47.303Z,54.1
2018-09-27T09:27:48.698Z,54.4
2018-09-27T09:28:50.097Z,54.3
2018-09-27T09:29:51.504Z,54.5
2018-09-27T09:30:52.892Z,54.5
2018-09-27T09:31:54.276Z,54.4
2018-09-27T09:32:55.665Z,54.1
2018-09-27T09:33:57.062Z,53.9
2018-09-27T09:34:58.471Z,53.8
2018-09-27T09:35:59.885Z,53.8
2018-09-27T09:37:01.243Z,54.0
2018-09-27T09:38:02.640Z,54.5
2018-09-27T09:39:04.008Z,54.4
2018-09-27T09:40:05.401Z,54.1
2018-09-27T09:41:06.806Z,53.8
2018-09-27T09:42:08.230Z,54.1
2018-09-27T09:43:09.602Z,54.4
2018-09-27T09:44:11.010Z,54.4
2018-09-27T09:45:12.407Z,53.7
2018-09-27T09:46:13.800Z,54.0
2018-09-27T09:47:15.198Z,53.4
2018-09-27T09:48:16.590Z,53.3
2018-09-27T09:49:17.991Z,53.0
2018-09-27T09:50:19.400Z,53.0
2018-09-27T09:51:21.382Z,53.1
2018-09-27T09:52:22.758Z,52.9
2018-09-27T09:53:24.148Z,52.5
2018-09-27T09:54:25.551Z,52.4
2018-09-27T09:55:26.942Z,52.4
2018-09-27T09:56:28.331Z,52.4
2018-09-27T09:57:29.715Z,52.5
2018-09-27T09:58:31.111Z,52.8
2018-09-27T09:59:32.512Z,52.8
2018-09-27T10:00:33.927Z,52.1
2018-09-27T10:01:35.351Z,52.0
2018-09-27T10:02:36.882Z,52.5
2018-09-27T10:03:38.170Z,52.4
2018-09-27T10:04:39.625Z,52.7
2018-09-27T10:05:40.998Z,52.5
2018-09-27T10:06:42.395Z,52.2
2018-09-27T10:07:43.795Z,52.1
2018-09-27T10:08:45.204Z,52.5
2018-09-27T10:09:46.582Z,51.7
2018-09-27T10:10:47.961Z,51.8
2018-09-27T10:11:49.362Z,51.6
2018-09-27T10:12:50.747Z,52.3
2018-09-27T10:13:52.145Z,52.4
2018-09-27T10:14:53.531Z,52.4
2018-09-27T10:15:54.914Z,52.3
2018-09-27T10:16:56.293Z,51.7
2018-09-27T10:17:57.683Z,51.2
2018-09-27T10:18:59.078Z,51.4
2018-09-27T10:20:00.490Z,51.0
2018-09-27T10:21:01.886Z,51.0
2018-09-27T10:22:03.332Z,51.1
2018-09-27T10:23:04.647Z,50.8
2018-09-27T10:24:06.046Z,51.1
2018-09-27T10:25:07.468Z,51.4
2018-09-27T10:26:08.881Z,50.4
2018-09-27T10:27:10.262Z,50.4
2018-09-27T10:28:11.646Z,50.5
2018-09-27T10:29:13.027Z,49.7
2018-09-27T10:30:14.423Z,49.6
2018-09-27T10:31:15.807Z,49.8
2018-09-27T10:32:17.182Z,49.6
2018-09-27T10:33:18.582Z,49.1
2018-09-27T10:34:20.094Z,48.9
2018-09-27T10:35:21.374Z,48.5
2018-09-27T10:36:22.762Z,48.7
2018-09-27T10:37:24.211Z,48.5
2018-09-27T10:38:25.621Z,48.8
2018-09-27T10:39:27.023Z,48.0
2018-09-27T10:40:28.446Z,48.2
2018-09-27T10:41:29.828Z,48.3
2018-09-27T10:42:31.228Z,48.5
2018-09-27T10:43:32.598Z,48.5
2018-09-27T10:44:34.032Z,48.0
2018-09-27T10:45:35.441Z,48.4
2018-09-27T10:46:36.873Z,48.1
2018-09-27T10:47:38.267Z,47.3
2018-09-27T10:48:40.443Z,47.1
2018-09-27T10:49:41.826Z,46.5
2018-09-27T10:50:43.198Z,46.5
2018-09-27T10:51:44.599Z,46.5
2018-09-27T10:52:45.979Z,46.4
2018-09-27T10:53:47.365Z,47.0
2018-09-27T10:54:48.746Z,47.0
2018-09-27T10:55:50.128Z,46.9
2018-09-27T10:56:51.527Z,47.2
2018-09-27T10:57:52.907Z,47.2
2018-09-27T10:58:54.292Z,47.0
2018-09-27T10:59:55.677Z,47.4
2018-09-27T11:00:57.068Z,47.7
2018-09-27T11:01:58.458Z,47.6
2018-09-27T11:02:59.876Z,46.7
2018-09-27T11:04:01.308Z,46.4
2018-09-27T11:05:02.656Z,46.4
2018-09-27T11:06:04.056Z,46.4
2018-09-27T11:07:05.446Z,46.3
2018-09-27T11:08:06.856Z,46.1
2018-09-27T11:09:08.242Z,46.1
2018-09-27T11:10:09.630Z,46.2
2018-09-27T11:11:11.110Z,46.2
2018-09-27T11:12:12.357Z,45.7
2018-09-27T11:13:13.767Z,46.2
2018-09-27T11:14:15.150Z,46.2
2018-09-27T11:15:16.536Z,45.6
2018-09-27T11:16:17.936Z,45.4
2018-09-27T11:17:19.303Z,45.0
2018-09-27T11:18:20.712Z,45.3
2018-09-27T11:19:22.100Z,45.3
2018-09-27T11:20:23.511Z,45.1
2018-09-27T11:21:24.893Z,45.2
2018-09-27T11:22:26.298Z,45.1
2018-09-27T11:23:27.691Z,44.6
2018-09-27T11:24:29.094Z,44.5
2018-09-27T11:25:30.483Z,43.9
2018-09-27T11:26:31.912Z,44.0
2018-09-27T11:27:33.304Z,43.4
2018-09-27T11:28:34.694Z,43.4
2018-09-27T11:29:36.073Z,43.2
2018-09-27T11:30:37.468Z,42.9
2018-09-27T11:31:38.874Z,42.5
2018-09-27T11:32:40.283Z,42.6
2018-09-27T11:33:41.677Z,42.5
2018-09-27T11:34:43.075Z,42.8
2018-09-27T11:35:44.467Z,42.4
2018-09-27T11:36:45.858Z,42.5
2018-09-27T11:37:47.243Z,41.9
2018-09-27T11:38:48.633Z,41.3
2018-09-27T11:39:50.013Z,41.3
2018-09-27T11:40:51.389Z,41.6
2018-09-27T11:41:52.773Z,41.4
2018-09-27T11:42:54.251Z,41.1
2018-09-27T11:43:55.599Z,40.9
2018-09-27T11:44:56.976Z,40.8
2018-09-27T11:45:58.359Z,41.0
2018-09-27T11:46:59.742Z,40.9
2018-09-27T11:48:01.154Z,40.7
2018-09-27T11:49:02.585Z,40.6
2018-09-27T11:50:04.023Z,40.7
2018-09-27T11:51:05.294Z,40.8
2018-09-27T11:52:06.687Z,40.6
2018-09-27T11:53:08.083Z,40.2
2018-09-27T11:54:09.479Z,40.8
2018-09-27T11:55:10.952Z,40.5
2018-09-27T11:56:12.270Z,40.1
2018-09-27T11:57:13.692Z,39.9
2018-09-27T11:58:15.093Z,39.8
2018-09-27T11:59:16.519Z,39.8
2018-09-27T12:00:17.907Z,39.8
2018-09-27T12:01:19.295Z,39.5
2018-09-27T12:02:20.689Z,39.3
2018-09-27T12:03:22.072Z,39.2
2018-09-27T12:04:23.452Z,38.9
2018-09-27T12:05:24.877Z,38.4
2018-09-27T12:06:26.305Z,38.4
2018-09-27T12:07:27.715Z,38.4
2018-09-27T12:08:29.078Z,38.2
2018-09-27T12:09:30.533Z,38.3
2018-09-27T12:10:31.931Z,38.0
2018-09-27T12:11:33.314Z,38.1
2018-09-27T12:12:34.724Z,37.9
2018-09-27T12:13:36.197Z,37.8
2018-09-27T12:14:37.628Z,38.1
2018-09-27T12:15:39.014Z,38.0
2018-09-27T12:16:40.467Z,38.0
2018-09-27T12:17:41.854Z,38.2
2018-09-27T12:18:43.260Z,38.2
2018-09-27T12:19:44.833Z,38.1
2018-09-27T12:20:46.052Z,38.1
2018-09-27T12:21:47.449Z,37.9
2018-09-27T12:22:48.834Z,38.0
2018-09-27T12:23:50.217Z,38.2
2018-09-27T12:24:51.634Z,38.2
2018-09-27T12:25:53.029Z,37.9
2018-09-27T12:26:54.444Z,38.1
2018-09-27T12:27:55.839Z,38.2
2018-09-27T12:28:57.278Z,38.2
2018-09-27T12:29:58.680Z,38.2
2018-09-27T12:31:00.166Z,37.8
2018-09-27T12:32:02.138Z,38.0
2018-09-27T12:33:03.529Z,38.1
2018-09-27T12:34:04.988Z,38.1
2018-09-27T12:35:06.289Z,38.0
2018-09-27T12:36:07.653Z,38.0
2018-09-27T12:37:09.039Z,38.0
2018-09-27T12:38:10.434Z,38.3
2018-09-27T12:39:11.809Z,37.9
2018-09-27T12:40:13.198Z,37.9
2018-09-27T12:41:14.584Z,38.0
2018-09-27T12:42:16.012Z,37.9
2018-09-27T12:43:17.344Z,38.0
2018-09-27T12:44:18.734Z,37.9
2018-09-27T12:45:20.215Z,38.0
2018-09-27T12:46:21.592Z,37.9
2018-09-27T12:47:22.939Z,37.5
2018-09-27T12:48:24.402Z,37.7
2018-09-27T12:49:25.755Z,37.5
2018-09-27T12:50:27.190Z,37.6
2018-09-27T12:51:28.647Z,37.6
2018-09-27T12:52:30.092Z,37.4
2018-09-27T12:53:31.318Z,37.7
2018-09-27T12:54:32.699Z,37.8
2018-09-27T12:55:34.114Z,37.8
2018-09-27T12:56:35.508Z,37.8
2018-09-27T12:57:36.904Z,37.5
2018-09-27T12:58:38.321Z,37.6
2018-09-27T12:59:39.737Z,37.5
2018-09-27T13:00:41.236Z,37.5
2018-09-27T13:01:42.663Z,37.4
2018-09-27T13:02:44.287Z,37.7
2018-09-27T13:03:45.369Z,37.3
2018-09-27T13:04:46.766Z,37.2
2018-09-27T13:05:48.154Z,36.9
2018-09-27T13:06:49.550Z,37.0
2018-09-27T13:07:50.949Z,37.0
2018-09-27T13:08:52.378Z,36.7
2018-09-27T13:09:53.812Z,36.6
2018-09-27T13:10:55.084Z,36.5
2018-09-27T13:11:56.549Z,36.4
2018-09-27T13:12:57.983Z,36.8
2018-09-27T13:13:59.250Z,36.7
2018-09-27T13:15:00.724Z,36.8
2018-09-27T13:16:02.024Z,37.0
2018-09-27T13:17:03.415Z,36.7
2018-09-27T13:18:04.805Z,36.5
2018-09-27T13:19:06.248Z,36.4
2018-09-27T13:20:07.695Z,36.5
2018-09-27T13:21:09.045Z,36.1
2018-09-27T13:22:10.450Z,35.9
2018-09-27T13:23:11.870Z,35.8
2018-09-27T13:24:13.282Z,35.6
2018-09-27T13:25:14.688Z,35.9
2018-09-27T13:26:16.064Z,35.7
2018-09-27T13:27:17.493Z,35.6
2018-09-27T13:28:18.888Z,35.6
2018-09-27T13:29:20.308Z,35.6
2018-09-27T13:30:21.738Z,35.6
2018-09-27T13:31:23.126Z,35.7
2018-09-27T13:32:24.548Z,35.7
2018-09-27T13:33:25.916Z,35.8
2018-09-27T13:34:27.339Z,35.5
2018-09-27T13:35:28.733Z,35.8
2018-09-27T13:36:30.132Z,35.8
2018-09-27T13:37:31.518Z,35.5
2018-09-27T13:38:32.914Z,35.6